createdAt,value
2018-12-09T00:02:01.478Z,12.07
2018-12-09T00:04:28.563Z,9.67
2018-12-09T00:06:55.615Z,13.77
2018-12-09T00:09:22.668Z,9.23
2018-12-09T00:11:49.710Z,8.70
2018-12-09T00:14:16.758Z,9.73
2018-12-09T00:16:43.909Z,7.63
2018-12-09T00:19:10.922Z,9.23
2018-12-09T00:21:38.114Z,8.43
2018-12-09T00:24:07.485Z,7.70
2018-12-09T00:26:34.460Z,13.30
2018-12-09T00:29:01.611Z,12.10
2018-12-09T00:31:28.658Z,10.27
2018-12-09T00:33:55.809Z,10.30
2018-12-09T00:36:24.290Z,6.97
2018-12-09T00:38:51.310Z,10.17
2018-12-09T00:41:18.393Z,10.40
2018-12-09T00:43:46.159Z,10.43
2018-12-09T00:46:13.201Z,9.73
2018-12-09T00:48:40.215Z,8.10
2018-12-09T00:51:07.262Z,11.17
2018-12-09T00:53:34.658Z,9.90
2018-12-09T00:56:01.707Z,10.63
2018-12-09T00:58:28.759Z,16.83
2018-12-09T01:00:55.801Z,12.30
2018-12-09T01:03:23.675Z,12.23
2018-12-09T01:05:50.718Z,11.67
2018-12-09T01:08:17.868Z,9.40
2018-12-09T01:10:45.224Z,11.63
2018-12-09T01:13:12.278Z,8.03
2018-12-09T01:15:40.141Z,10.97
2018-12-09T01:18:07.193Z,10.33
2018-12-09T01:20:34.238Z,7.47
2018-12-09T01:23:01.288Z,12.23
2018-12-09T01:25:28.339Z,6.83
2018-12-09T01:28:13.423Z,8.00
2018-12-09T01:30:59.175Z,9.73
2018-12-09T01:33:30.261Z,14.23
2018-12-09T01:35:57.362Z,7.10
2018-12-09T01:38:24.434Z,8.40
2018-12-09T01:40:54.522Z,9.17
2018-12-09T01:43:21.604Z,7.57
2018-12-09T01:45:48.654Z,2.30
2018-12-09T01:48:15.669Z,6.20
2018-12-09T01:50:42.750Z,6.73
2018-12-09T01:53:15.846Z,7.87
2018-12-09T01:55:42.878Z,7.13
2018-12-09T01:58:09.938Z,7.13
2018-12-09T02:00:37.000Z,6.43
2018-12-09T02:03:04.035Z,10.90
2018-12-09T02:05:31.089Z,7.20
2018-12-09T02:07:58.233Z,8.70
2018-12-09T02:10:25.290Z,8.23
2018-12-09T02:12:53.253Z,8.40
2018-12-09T02:15:20.301Z,8.03
2018-12-09T02:17:47.456Z,8.47
2018-12-09T02:20:15.429Z,8.77
2018-12-09T02:22:42.475Z,8.20
2018-12-09T02:25:09.623Z,7.77
2018-12-09T02:27:37.051Z,8.27
2018-12-09T02:30:04.236Z,9.07
2018-12-09T02:32:31.381Z,10.10
2018-12-09T02:34:58.433Z,8.90
2018-12-09T02:37:25.815Z,13.73
2018-12-09T02:39:52.941Z,6.90
2018-12-09T02:42:19.960Z,10.60
2018-12-09T02:44:47.027Z,8.37
2018-12-09T02:47:14.287Z,10.23
2018-12-09T02:49:41.337Z,8.00
2018-12-09T02:52:08.486Z,11.23
2018-12-09T02:54:38.169Z,8.10
2018-12-09T02:57:05.554Z,8.53
2018-12-09T02:59:32.610Z,11.20
2018-12-09T03:01:59.650Z,9.17
2018-12-09T03:04:26.698Z,9.33
2018-12-09T03:06:56.071Z,5.03
2018-12-09T03:09:23.151Z,7.20
2018-12-09T03:11:50.209Z,8.43
2018-12-09T03:14:17.248Z,8.37
2018-12-09T03:16:44.507Z,8.70
2018-12-09T03:19:11.857Z,9.40
2018-12-09T03:21:38.873Z,8.10
2018-12-09T03:24:05.960Z,7.77
2018-12-09T03:26:33.208Z,8.60
2018-12-09T03:29:00.219Z,7.20
2018-12-09T03:31:27.306Z,8.40
2018-12-09T03:33:54.355Z,6.63
2018-12-09T03:36:22.637Z,9.00
2018-12-09T03:38:49.680Z,8.73
2018-12-09T03:41:16.742Z,8.07
2018-12-09T03:43:43.783Z,8.47
2018-12-09T03:46:10.796Z,7.20
2018-12-09T03:48:37.834Z,8.63
2018-12-09T03:51:04.928Z,8.13
2018-12-09T03:53:50.940Z,8.83
2018-12-09T03:56:40.528Z,5.63
2018-12-09T03:59:07.746Z,8.73
2018-12-09T04:01:34.759Z,9.87
2018-12-09T04:04:01.810Z,7.43
2018-12-09T04:06:28.999Z,8.00
2018-12-09T04:08:56.011Z,6.70
2018-12-09T04:11:23.091Z,6.83
2018-12-09T04:13:51.074Z,7.13
2018-12-09T04:16:17.299Z,4.37
2018-12-09T04:18:44.339Z,8.47
2018-12-09T04:21:11.391Z,6.67
2018-12-09T04:23:38.539Z,3.13
2018-12-09T04:26:05.792Z,6.53
2018-12-09T04:28:32.840Z,4.73
2018-12-09T04:30:59.857Z,6.33
2018-12-09T04:33:27.248Z,6.70
2018-12-09T04:35:54.394Z,5.77
2018-12-09T04:38:21.458Z,2.87
2018-12-09T04:40:48.454Z,6.67
2018-12-09T04:43:15.542Z,5.43
2018-12-09T04:45:42.591Z,7.37
2018-12-09T04:48:09.647Z,8.60
2018-12-09T04:50:36.687Z,6.30
2018-12-09T04:53:05.173Z,4.53
2018-12-09T04:55:32.218Z,7.30
2018-12-09T04:57:59.269Z,5.40
2018-12-09T05:00:32.253Z,6.43
2018-12-09T05:02:59.308Z,5.07
2018-12-09T05:05:26.458Z,5.60
2018-12-09T05:07:54.606Z,6.50
2018-12-09T05:10:21.781Z,6.97
2018-12-09T05:12:48.838Z,5.87
2018-12-09T05:15:15.882Z,5.73
2018-12-09T05:17:43.030Z,5.43
2018-12-09T05:20:10.044Z,9.47
2018-12-09T05:22:37.025Z,6.63
2018-12-09T05:25:04.485Z,6.53
2018-12-09T05:27:31.603Z,6.00
2018-12-09T05:29:59.159Z,10.17
2018-12-09T05:32:26.241Z,6.97
2018-12-09T05:34:53.289Z,5.37
2018-12-09T05:37:20.303Z,5.80
2018-12-09T05:39:47.497Z,6.90
2018-12-09T05:42:15.049Z,4.90
2018-12-09T05:44:42.103Z,4.40
2018-12-09T05:47:09.114Z,5.07
2018-12-09T05:49:36.195Z,12.90
2018-12-09T05:52:03.249Z,7.03
2018-12-09T05:54:30.291Z,6.40
2018-12-09T05:56:57.342Z,4.33
2018-12-09T05:59:24.393Z,6.47
2018-12-09T06:01:51.508Z,31.53
2018-12-09T06:04:18.588Z,18.43
2018-12-09T06:06:45.637Z,4.37
2018-12-09T06:09:12.691Z,5.93
2018-12-09T06:12:00.342Z,5.43
2018-12-09T06:14:27.366Z,35.63
2018-12-09T06:16:54.420Z,103.57
2018-12-09T06:19:22.146Z,70.43
2018-12-09T06:21:49.124Z,27.87
2018-12-09T06:24:16.178Z,34.67
2018-12-09T06:26:43.594Z,8.97
2018-12-09T06:29:10.680Z,10.90
2018-12-09T06:31:37.729Z,6.30
2018-12-09T06:34:05.495Z,7.90
2018-12-09T06:36:32.541Z,17.27
2018-12-09T06:38:59.585Z,9.63
2018-12-09T06:41:27.351Z,252.70
2018-12-09T06:43:54.399Z,193.97
2018-12-09T06:46:21.604Z,126.93
2018-12-09T06:48:49.008Z,160.50
2018-12-09T06:51:16.061Z,110.47
2018-12-09T06:53:43.106Z,87.53
2018-12-09T06:56:10.154Z,11.40
2018-12-09T06:58:37.207Z,6.07
2018-12-09T07:01:04.253Z,7.67
2018-12-09T07:03:31.300Z,8.00
2018-12-09T07:05:58.352Z,7.33
2018-12-09T07:08:25.396Z,6.17
2018-12-09T07:10:52.446Z,8.87
2018-12-09T07:13:19.498Z,9.97
2018-12-09T07:15:46.649Z,17.77
2018-12-09T07:18:32.535Z,13.77
2018-12-09T07:21:17.828Z,7.40
2018-12-09T07:23:44.860Z,4.13
2018-12-09T07:26:11.908Z,7.37
2018-12-09T07:28:38.961Z,8.00
2018-12-09T07:31:06.005Z,10.00
2018-12-09T07:33:33.057Z,4.10
2018-12-09T07:36:00.107Z,7.50
2018-12-09T07:38:27.154Z,7.37
2018-12-09T07:40:54.299Z,33.83
2018-12-09T07:43:22.988Z,8.93
2018-12-09T07:45:49.988Z,7.33
2018-12-09T07:48:16.983Z,4.13
2018-12-09T07:50:44.185Z,3.23
2018-12-09T07:53:11.237Z,7.50
2018-12-09T07:55:38.237Z,5.63
2018-12-09T07:58:05.282Z,5.90
2018-12-09T08:00:32.944Z,4.33
2018-12-09T08:02:59.996Z,8.40
2018-12-09T08:05:27.246Z,5.53
2018-12-09T08:07:54.303Z,8.37
2018-12-09T08:10:23.549Z,6.00
2018-12-09T08:12:50.601Z,6.53
2018-12-09T08:15:17.594Z,9.93
2018-12-09T08:17:44.589Z,8.13
2018-12-09T08:20:11.590Z,6.00
2018-12-09T08:22:38.633Z,8.77
2018-12-09T08:25:05.681Z,26.17
2018-12-09T08:27:32.739Z,8.90
2018-12-09T08:30:01.909Z,11.53
2018-12-09T08:32:29.743Z,6.83
2018-12-09T08:34:56.697Z,10.30
2018-12-09T08:37:26.568Z,6.70
2018-12-09T08:39:53.604Z,3.67
2018-12-09T08:42:23.317Z,6.37
2018-12-09T08:44:50.363Z,14.93
2018-12-09T08:47:17.412Z,10.13
2018-12-09T08:49:44.409Z,8.60
2018-12-09T08:52:11.407Z,6.27
2018-12-09T08:54:38.460Z,5.30
2018-12-09T08:57:05.503Z,4.13
2018-12-09T08:59:32.552Z,3.40
2018-12-09T09:01:59.605Z,6.10
2018-12-09T09:04:26.650Z,1.83
2018-12-09T09:06:53.697Z,4.83
2018-12-09T09:09:20.752Z,6.93
2018-12-09T09:11:47.749Z,4.33
2018-12-09T09:14:15.464Z,2.67
2018-12-09T09:16:42.512Z,2.97
2018-12-09T09:19:09.553Z,6.73
2018-12-09T09:21:36.556Z,7.43
2018-12-09T09:24:03.965Z,5.33
2018-12-09T09:26:31.338Z,1.60
2018-12-09T09:28:58.880Z,10.00
2018-12-09T09:31:25.924Z,7.03
2018-12-09T09:33:53.280Z,5.87
2018-12-09T09:36:21.147Z,5.00
2018-12-09T09:38:48.195Z,10.37
2018-12-09T09:41:16.415Z,6.93
2018-12-09T09:43:43.935Z,9.87
2018-12-09T09:46:10.985Z,8.07
2018-12-09T09:48:39.101Z,8.13
2018-12-09T09:51:06.560Z,7.67
2018-12-09T09:53:33.559Z,8.40
2018-12-09T09:56:00.612Z,10.93
2018-12-09T09:58:28.167Z,11.40
2018-12-09T10:00:55.230Z,7.03
2018-12-09T10:03:25.873Z,9.13
2018-12-09T10:05:51.566Z,10.50
2018-12-09T10:08:18.614Z,10.00
2018-12-09T10:10:45.667Z,9.17
2018-12-09T10:13:14.145Z,13.33
2018-12-09T10:15:41.198Z,15.37
2018-12-09T10:18:08.243Z,11.27
2018-12-09T10:20:36.783Z,12.97
2018-12-09T10:23:03.773Z,10.33
2018-12-09T10:25:30.822Z,11.80
2018-12-09T10:27:57.878Z,10.17
2018-12-09T10:30:25.641Z,11.83
2018-12-09T10:32:52.685Z,12.20
2018-12-09T10:35:19.731Z,11.30
2018-12-09T10:37:46.785Z,10.97
2018-12-09T10:40:13.830Z,11.20
2018-12-09T10:42:40.919Z,11.00
2018-12-09T10:45:08.643Z,11.83
2018-12-09T10:47:35.696Z,14.73
2018-12-09T10:50:02.741Z,11.87
2018-12-09T10:52:29.789Z,10.47
2018-12-09T10:54:56.784Z,13.00
2018-12-09T10:57:24.606Z,14.07
2018-12-09T10:59:51.652Z,11.27
2018-12-09T11:02:18.707Z,13.53
2018-12-09T11:04:45.755Z,12.17
2018-12-09T11:07:12.799Z,14.30
2018-12-09T11:09:39.847Z,14.40
2018-12-09T11:12:06.901Z,14.47
2018-12-09T11:14:33.949Z,13.00
2018-12-09T11:17:00.992Z,10.83
2018-12-09T11:19:28.048Z,12.30
2018-12-09T11:21:55.091Z,14.87
2018-12-09T11:24:22.095Z,14.57
2018-12-09T11:26:49.085Z,14.03
2018-12-09T11:29:16.804Z,13.40
2018-12-09T11:31:44.614Z,16.90
2018-12-09T11:34:11.662Z,14.90
2018-12-09T11:36:39.172Z,14.77
2018-12-09T11:39:06.176Z,18.00
2018-12-09T11:41:33.218Z,14.67
2018-12-09T11:44:00.268Z,15.60
2018-12-09T11:46:27.418Z,13.93
2018-12-09T11:48:54.416Z,14.60
2018-12-09T11:51:21.414Z,15.33
2018-12-09T11:53:49.082Z,21.93
2018-12-09T11:56:16.124Z,15.30
2018-12-09T11:58:43.174Z,15.20
2018-12-09T12:01:10.630Z,16.07
2018-12-09T12:03:37.687Z,16.53
2018-12-09T12:06:04.681Z,18.67
2018-12-09T12:08:31.879Z,16.87
2018-12-09T12:10:58.927Z,15.90
2018-12-09T12:13:27.178Z,16.40
2018-12-09T12:15:54.150Z,16.63
2018-12-09T12:18:21.157Z,14.17
2018-12-09T12:20:48.148Z,14.43
2018-12-09T12:23:15.200Z,16.87
2018-12-09T12:25:42.447Z,15.00
2018-12-09T12:28:09.505Z,15.60
2018-12-09T12:30:38.286Z,15.00
2018-12-09T12:33:05.341Z,14.47
2018-12-09T12:35:32.384Z,14.40
2018-12-09T12:37:59.432Z,16.73
2018-12-09T12:40:26.489Z,13.57
2018-12-09T12:42:53.488Z,16.10
2018-12-09T12:45:20.481Z,13.00
2018-12-09T12:47:47.522Z,13.13
2018-12-09T12:50:14.572Z,12.30
2018-12-09T12:52:46.600Z,15.02
2018-12-09T12:55:13.585Z,11.60
2018-12-09T12:57:40.633Z,14.57
2018-12-09T13:00:07.784Z,12.83
2018-12-09T13:02:34.840Z,13.03
2018-12-09T13:05:01.882Z,12.07
2018-12-09T13:07:28.929Z,11.63
2018-12-09T13:09:55.987Z,11.50
2018-12-09T13:12:23.028Z,12.67
2018-12-09T13:14:51.667Z,12.73
2018-12-09T13:17:18.666Z,14.77
2018-12-09T13:19:45.708Z,16.33
2018-12-09T13:22:13.781Z,16.53
2018-12-09T13:24:40.830Z,12.07
2018-12-09T13:27:08.082Z,11.83
2018-12-09T13:29:37.998Z,11.07
2018-12-09T13:32:05.006Z,12.50
2018-12-09T13:34:34.358Z,12.93
2018-12-09T13:37:01.807Z,13.80
2018-12-09T13:39:28.861Z,12.63
2018-12-09T13:42:01.826Z,12.17
2018-12-09T13:44:28.893Z,11.40
2018-12-09T13:46:56.043Z,13.30
2018-12-09T13:49:23.301Z,11.97
2018-12-09T13:51:52.961Z,10.90
2018-12-09T13:54:19.139Z,12.63
2018-12-09T13:56:46.186Z,11.13
2018-12-09T13:59:13.236Z,12.90
2018-12-09T14:01:40.288Z,11.60
2018-12-09T14:04:07.331Z,12.60
2018-12-09T14:06:34.381Z,13.40
2018-12-09T14:09:01.431Z,13.67
2018-12-09T14:11:29.128Z,14.70
2018-12-09T14:13:55.626Z,13.45
2018-12-09T14:16:22.674Z,15.47
2018-12-09T14:18:49.727Z,16.87
2018-12-09T14:21:16.802Z,16.63
2018-12-09T14:23:43.827Z,16.30
2018-12-09T14:26:10.899Z,16.03
2018-12-09T14:28:37.917Z,14.20
2018-12-09T14:31:04.965Z,14.53
2018-12-09T14:33:32.020Z,14.73
2018-12-09T14:35:59.072Z,16.20
2018-12-09T14:38:26.214Z,17.97
2018-12-09T14:40:55.316Z,16.07
2018-12-09T14:43:22.358Z,20.63
2018-12-09T14:45:49.409Z,22.00
2018-12-09T14:48:16.460Z,20.80
2018-12-09T14:50:44.484Z,21.50
2018-12-09T14:53:11.475Z,15.93
2018-12-09T14:55:40.570Z,17.10
2018-12-09T14:58:07.620Z,18.77
2018-12-09T15:00:34.674Z,16.30
2018-12-09T15:03:03.305Z,19.23
2018-12-09T15:05:31.530Z,16.20
2018-12-09T15:07:58.584Z,17.93
2018-12-09T15:10:26.243Z,17.30
2018-12-09T15:12:53.289Z,14.73
2018-12-09T15:15:20.345Z,17.70
2018-12-09T15:17:47.387Z,25.00
2018-12-09T15:20:14.745Z,30.30
2018-12-09T15:22:41.799Z,31.67
2018-12-09T15:25:08.849Z,31.57
2018-12-09T15:27:36.196Z,35.92
2018-12-09T15:30:05.190Z,30.90
2018-12-09T15:32:32.144Z,26.00
2018-12-09T15:34:59.288Z,29.75
2018-12-09T15:37:26.854Z,27.40
2018-12-09T15:39:53.897Z,25.42
2018-12-09T15:42:20.852Z,29.20
2018-12-09T15:44:47.893Z,27.95
2018-12-09T15:47:15.555Z,25.83
2018-12-09T15:49:42.608Z,23.10
2018-12-09T15:52:09.857Z,24.45
2018-12-09T15:54:37.008Z,25.88
2018-12-09T15:57:05.490Z,24.80
2018-12-09T15:59:32.566Z,27.52
2018-12-09T16:01:59.594Z,24.75
2018-12-09T16:04:27.843Z,23.75
2018-12-09T16:06:54.816Z,22.80
2018-12-09T16:09:37.576Z,33.58
2018-12-09T16:12:18.666Z,32.95
2018-12-09T16:14:45.655Z,28.40
2018-12-09T16:17:12.701Z,32.42
2018-12-09T16:19:39.756Z,25.30
2018-12-09T16:22:06.799Z,23.05
2018-12-09T16:24:33.848Z,21.48
2018-12-09T16:27:00.844Z,22.15
2018-12-09T16:29:43.466Z,22.98
2018-12-09T16:32:10.564Z,20.98
2018-12-09T16:34:37.607Z,22.33
2018-12-09T16:37:04.655Z,20.33
2018-12-09T16:39:31.710Z,22.87
2018-12-09T16:41:58.753Z,21.30
2018-12-09T16:44:25.802Z,24.17
2018-12-09T16:46:52.855Z,23.80
2018-12-09T16:49:19.898Z,24.17
2018-12-09T16:51:46.950Z,25.87
2018-12-09T16:54:14.003Z,21.20
2018-12-09T16:56:41.046Z,23.10
2018-12-09T16:59:08.094Z,22.40
2018-12-09T17:01:54.327Z,21.43
2018-12-09T17:04:40.230Z,22.00
2018-12-09T17:07:33.332Z,23.83
2018-12-09T17:10:42.032Z,24.67
2018-12-09T17:13:10.212Z,24.80
2018-12-09T17:15:43.120Z,24.90
2018-12-09T17:18:15.038Z,25.63
2018-12-09T17:20:45.883Z,21.83
2018-12-09T17:23:19.055Z,22.33
2018-12-09T17:25:50.950Z,26.13
2018-12-09T17:28:20.870Z,28.33
2018-12-09T17:30:52.430Z,24.50
2018-12-09T17:33:23.684Z,24.10
2018-12-09T17:35:50.442Z,37.23
2018-12-09T17:38:17.597Z,35.33
2018-12-09T17:40:46.617Z,29.33
2018-12-09T17:43:15.079Z,30.30
2018-12-09T17:45:42.120Z,31.40
2018-12-09T17:48:09.424Z,27.73
2018-12-09T17:50:36.420Z,26.80
2018-12-09T17:53:20.400Z,27.53
2018-12-09T17:55:58.469Z,30.27
2018-12-09T17:58:25.477Z,31.53
2018-12-09T18:00:52.468Z,28.00
2018-12-09T18:03:23.255Z,29.73
2018-12-09T18:06:06.206Z,27.20
2018-12-09T18:08:51.930Z,27.20
2018-12-09T18:11:18.966Z,40.57
2018-12-09T18:13:46.009Z,43.17
2018-12-09T18:16:13.365Z,82.07
2018-12-09T18:18:40.424Z,38.20
2018-12-09T18:21:07.463Z,31.77
2018-12-09T18:23:36.003Z,25.03
2018-12-09T18:26:02.117Z,25.60
2018-12-09T18:28:29.482Z,26.70
2018-12-09T18:30:56.481Z,26.07
2018-12-09T18:33:25.062Z,37.43
2018-12-09T18:35:53.031Z,50.43
2018-12-09T18:38:20.028Z,46.03
2018-12-09T18:41:07.801Z,42.07
2018-12-09T18:43:54.202Z,41.00
2018-12-09T18:46:40.919Z,39.07
2018-12-09T18:49:27.807Z,35.33
2018-12-09T18:51:54.793Z,37.77
2018-12-09T18:54:21.833Z,39.40
2018-12-09T18:56:48.882Z,43.70
2018-12-09T18:59:15.937Z,38.10
2018-12-09T19:01:42.979Z,44.13
2018-12-09T19:04:10.028Z,40.60
2018-12-09T19:06:37.083Z,38.73
2018-12-09T19:09:04.126Z,40.37
2018-12-09T19:11:31.175Z,37.47
2018-12-09T19:13:58.941Z,40.40
2018-12-09T19:16:25.993Z,40.47
2018-12-09T19:18:53.036Z,34.93
2018-12-09T19:21:20.189Z,36.53
2018-12-09T19:23:47.236Z,38.93
2018-12-09T19:26:14.290Z,35.93
2018-12-09T19:28:41.333Z,34.40
2018-12-09T19:31:08.382Z,31.33
2018-12-09T19:33:35.436Z,32.70
2018-12-09T19:36:03.868Z,34.20
2018-12-09T19:38:30.965Z,36.77
2018-12-09T19:41:00.268Z,36.70
2018-12-09T19:43:27.312Z,37.67
2018-12-09T19:45:54.317Z,38.97
2018-12-09T19:48:21.417Z,38.40
2018-12-09T19:50:48.492Z,40.87
2018-12-09T19:53:15.461Z,35.53
2018-12-09T19:55:42.453Z,41.77
2018-12-09T19:58:09.711Z,34.27
2018-12-09T20:00:36.757Z,37.97
2018-12-09T20:03:03.802Z,40.10
2018-12-09T20:05:30.865Z,39.30
2018-12-09T20:07:57.883Z,36.57
2018-12-09T20:10:27.307Z,36.67
2018-12-09T20:12:54.352Z,31.03
2018-12-09T20:15:21.400Z,31.83
2018-12-09T20:17:48.453Z,33.77
2018-12-09T20:20:17.241Z,32.77
2018-12-09T20:22:45.523Z,29.63
2018-12-09T20:25:12.671Z,32.20
2018-12-09T20:27:43.297Z,32.57
2018-12-09T20:30:10.756Z,29.80
2018-12-09T20:32:39.443Z,28.10
2018-12-09T20:35:06.497Z,26.60
2018-12-09T20:37:33.541Z,29.87
2018-12-09T20:40:04.100Z,28.30
2018-12-09T20:42:34.906Z,25.23
2018-12-09T20:45:03.939Z,26.10
2018-12-09T20:47:31.258Z,26.93
2018-12-09T20:49:59.767Z,23.43
2018-12-09T20:52:28.733Z,25.73
2018-12-09T20:54:57.590Z,26.47
2018-12-09T20:57:26.723Z,24.03
2018-12-09T20:59:55.377Z,28.63
2018-12-09T21:02:23.664Z,19.10
2018-12-09T21:04:51.760Z,27.17
2018-12-09T21:07:18.757Z,24.30
2018-12-09T21:09:45.862Z,21.70
2018-12-09T21:12:12.908Z,23.00
2018-12-09T21:14:40.056Z,21.70
2018-12-09T21:17:07.417Z,20.40
2018-12-09T21:19:34.465Z,20.53
2018-12-09T21:22:01.509Z,19.77
2018-12-09T21:24:28.659Z,20.80
2018-12-09T21:26:55.872Z,19.53
2018-12-09T21:29:22.864Z,21.03
2018-12-09T21:31:50.215Z,21.90
2018-12-09T21:34:17.264Z,21.77
2018-12-09T21:36:44.517Z,15.77
2018-12-09T21:39:11.565Z,16.77
2018-12-09T21:41:39.425Z,18.47
2018-12-09T21:44:06.691Z,19.70
2018-12-09T21:46:33.736Z,19.73
2018-12-09T21:49:00.784Z,15.83
2018-12-09T21:51:27.839Z,18.23
2018-12-09T21:53:54.880Z,19.23
2018-12-09T21:56:21.930Z,23.57
2018-12-09T21:58:48.983Z,18.10
2018-12-09T22:01:16.028Z,22.70
2018-12-09T22:03:43.075Z,22.10
2018-12-09T22:06:10.944Z,20.43
2018-12-09T22:08:37.990Z,19.00
2018-12-09T22:11:06.678Z,18.70
2018-12-09T22:13:33.732Z,13.67
2018-12-09T22:16:00.779Z,21.93
2018-12-09T22:18:28.341Z,23.57
2018-12-09T22:20:57.126Z,23.00
2018-12-09T22:23:24.179Z,21.93
2018-12-09T22:25:51.222Z,22.87
2018-12-09T22:28:18.131Z,23.17
2018-12-09T22:30:46.754Z,19.57
2018-12-09T22:33:13.802Z,27.73
2018-12-09T22:35:40.797Z,26.43
2018-12-09T22:38:07.796Z,22.97
2018-12-09T22:40:34.855Z,28.50
2018-12-09T22:43:01.900Z,19.73
2018-12-09T22:45:28.949Z,17.00
2018-12-09T22:47:55.940Z,22.23
2018-12-09T22:50:22.939Z,27.77
2018-12-09T22:52:49.992Z,20.77
2018-12-09T22:55:17.034Z,19.17
2018-12-09T22:57:44.183Z,19.53
2018-12-09T23:00:11.232Z,24.20
2018-12-09T23:02:44.742Z,24.13
2018-12-09T23:05:11.781Z,20.07
2018-12-09T23:07:44.771Z,22.33
2018-12-09T23:10:13.642Z,22.20
2018-12-09T23:12:40.658Z,17.23
2018-12-09T23:15:07.655Z,19.43
2018-12-09T23:17:34.710Z,17.23
2018-12-09T23:20:01.751Z,16.97
2018-12-09T23:22:28.801Z,18.77
2018-12-09T23:24:55.854Z,17.13
2018-12-09T23:27:22.898Z,20.80
2018-12-09T23:29:49.945Z,14.03
2018-12-09T23:32:17.028Z,22.93
2018-12-09T23:34:44.043Z,28.67
2018-12-09T23:37:11.091Z,16.60
2018-12-09T23:39:38.148Z,18.17
2018-12-09T23:42:05.191Z,18.33
2018-12-09T23:44:33.368Z,28.07
2018-12-09T23:47:00.876Z,25.60
2018-12-09T23:49:27.869Z,24.93
2018-12-09T23:51:54.918Z,32.33
2018-12-09T23:54:22.172Z,20.17
2018-12-09T23:56:49.200Z,27.63
2018-12-09T23:59:16.274Z,27.30
